sensor_id;sensor_type;location;lat;lon;timestamp;P1;durP1;ratioP1;P2;durP2;ratioP2
22378;SDS011;11357;49.990;7.370;2023-01-30T00:01:16;41.53;;;20.10;;
22378;SDS011;11357;49.990;7.370;2023-01-30T00:03:43;41.50;;;20.13;;
22378;SDS011;11357;49.990;7.370;2023-01-30T00:06:10;45.73;;;20.30;;
22378;SDS011;11357;49.990;7.370;2023-01-30T00:08:36;49.70;;;22.20;;
22378;SDS011;11357;49.990;7.370;2023-01-30T00:11:02;45.60;;;20.70;;
22378;SDS011;11357;49.990;7.370;2023-01-30T00:13:30;40.53;;;17.80;;
22378;SDS011;11357;49.990;7.370;2023-01-30T00:15:55;39.23;;;18.83;;
22378;SDS011;11357;49.990;7.370;2023-01-30T00:18:21;36.87;;;17.50;;
22378;SDS011;11357;49.990;7.370;2023-01-30T00:20:47;31.40;;;13.53;;
22378;SDS011;11357;49.990;7.370;2023-01-30T00:23:12;40.30;;;20.87;;
22378;SDS011;11357;49.990;7.370;2023-01-30T00:25:38;41.37;;;19.67;;
22378;SDS011;11357;49.990;7.370;2023-01-30T00:28:04;39.97;;;19.53;;
22378;SDS011;11357;49.990;7.370;2023-01-30T00:30:29;35.97;;;17.57;;
22378;SDS011;11357;49.990;7.370;2023-01-30T00:32:55;41.77;;;20.33;;
22378;SDS011;11357;49.990;7.370;2023-01-30T00:35:22;43.07;;;18.60;;
22378;SDS011;11357;49.990;7.370;2023-01-30T00:37:52;42.17;;;18.43;;
22378;SDS011;11357;49.990;7.370;2023-01-30T00:40:22;44.07;;;20.17;;
22378;SDS011;11357;49.990;7.370;2023-01-30T00:42:49;44.50;;;19.73;;
22378;SDS011;11357;49.990;7.370;2023-01-30T00:45:33;47.30;;;20.00;;
22378;SDS011;11357;49.990;7.370;2023-01-30T00:48:18;43.97;;;20.73;;
22378;SDS011;11357;49.990;7.370;2023-01-30T00:50:44;43.43;;;19.90;;
22378;SDS011;11357;49.990;7.370;2023-01-30T00:53:13;42.93;;;19.50;;
22378;SDS011;11357;49.990;7.370;2023-01-30T00:55:40;41.83;;;20.57;;
22378;SDS011;11357;49.990;7.370;2023-01-30T00:58:07;47.63;;;22.40;;
22378;SDS011;11357;49.990;7.370;2023-01-30T01:00:34;48.80;;;22.37;;
22378;SDS011;11357;49.990;7.370;2023-01-30T01:02:59;47.73;;;21.63;;
22378;SDS011;11357;49.990;7.370;2023-01-30T01:05:25;43.97;;;20.40;;
22378;SDS011;11357;49.990;7.370;2023-01-30T01:07:52;47.50;;;22.17;;
22378;SDS011;11357;49.990;7.370;2023-01-30T01:10:18;50.83;;;22.17;;
22378;SDS011;11357;49.990;7.370;2023-01-30T01:12:44;43.43;;;20.90;;
22378;SDS011;11357;49.990;7.370;2023-01-30T01:15:11;49.73;;;20.57;;
22378;SDS011;11357;49.990;7.370;2023-01-30T01:17:38;41.23;;;19.67;;
22378;SDS011;11357;49.990;7.370;2023-01-30T01:20:05;50.97;;;21.07;;
22378;SDS011;11357;49.990;7.370;2023-01-30T01:22:31;44.30;;;20.03;;
22378;SDS011;11357;49.990;7.370;2023-01-30T01:24:57;39.13;;;17.87;;
22378;SDS011;11357;49.990;7.370;2023-01-30T01:27:23;48.33;;;20.43;;
22378;SDS011;11357;49.990;7.370;2023-01-30T01:29:49;46.83;;;20.13;;
22378;SDS011;11357;49.990;7.370;2023-01-30T01:32:14;47.67;;;21.60;;
22378;SDS011;11357;49.990;7.370;2023-01-30T01:34:40;52.80;;;23.40;;
22378;SDS011;11357;49.990;7.370;2023-01-30T01:37:06;48.40;;;20.60;;
22378;SDS011;11357;49.990;7.370;2023-01-30T01:39:32;51.10;;;22.67;;
22378;SDS011;11357;49.990;7.370;2023-01-30T01:42:16;45.37;;;21.27;;
22378;SDS011;11357;49.990;7.370;2023-01-30T01:44:59;45.33;;;20.67;;
22378;SDS011;11357;49.990;7.370;2023-01-30T01:48:02;50.27;;;22.60;;
22378;SDS011;11357;49.990;7.370;2023-01-30T01:53:02;49.37;;;21.23;;
22378;SDS011;11357;49.990;7.370;2023-01-30T01:55:28;41.47;;;19.00;;
22378;SDS011;11357;49.990;7.370;2023-01-30T01:58:00;45.87;;;21.77;;
22378;SDS011;11357;49.990;7.370;2023-01-30T02:00:34;43.13;;;19.80;;
22378;SDS011;11357;49.990;7.370;2023-01-30T02:03:02;42.67;;;20.57;;
22378;SDS011;11357;49.990;7.370;2023-01-30T02:05:33;42.13;;;20.30;;
22378;SDS011;11357;49.990;7.370;2023-01-30T02:08:07;36.87;;;17.40;;
22378;SDS011;11357;49.990;7.370;2023-01-30T02:11:20;40.83;;;19.73;;
22378;SDS011;11357;49.990;7.370;2023-01-30T02:13:44;38.87;;;18.77;;
22378;SDS011;11357;49.990;7.370;2023-01-30T02:16:10;41.10;;;20.43;;
22378;SDS011;11357;49.990;7.370;2023-01-30T02:18:37;46.20;;;21.70;;
22378;SDS011;11357;49.990;7.370;2023-01-30T02:43:09;35.87;;;16.00;;
22378;SDS011;11357;49.990;7.370;2023-01-30T02:45:53;48.63;;;20.97;;
22378;SDS011;11357;49.990;7.370;2023-01-30T02:48:26;44.30;;;20.43;;
22378;SDS011;11357;49.990;7.370;2023-01-30T02:51:18;41.63;;;18.37;;
22378;SDS011;11357;49.990;7.370;2023-01-30T02:53:48;43.80;;;19.33;;
22378;SDS011;11357;49.990;7.370;2023-01-30T02:56:15;41.43;;;19.10;;
22378;SDS011;11357;49.990;7.370;2023-01-30T02:59:03;47.07;;;21.37;;
22378;SDS011;11357;49.990;7.370;2023-01-30T03:14:54;47.70;;;22.60;;
22378;SDS011;11357;49.990;7.370;2023-01-30T03:17:24;45.47;;;20.17;;
22378;SDS011;11357;49.990;7.370;2023-01-30T03:19:52;47.20;;;20.53;;
22378;SDS011;11357;49.990;7.370;2023-01-30T03:22:19;29.90;;;14.47;;
22378;SDS011;11357;49.990;7.370;2023-01-30T03:24:46;38.60;;;17.87;;
22378;SDS011;11357;49.990;7.370;2023-01-30T03:27:13;48.60;;;20.73;;
22378;SDS011;11357;49.990;7.370;2023-01-30T03:29:39;49.80;;;22.00;;
22378;SDS011;11357;49.990;7.370;2023-01-30T03:32:04;40.73;;;19.33;;
22378;SDS011;11357;49.990;7.370;2023-01-30T03:34:30;39.90;;;19.47;;
22378;SDS011;11357;49.990;7.370;2023-01-30T03:36:56;48.03;;;20.83;;
22378;SDS011;11357;49.990;7.370;2023-01-30T03:39:22;46.13;;;19.83;;
22378;SDS011;11357;49.990;7.370;2023-01-30T03:41:49;46.77;;;23.23;;
22378;SDS011;11357;49.990;7.370;2023-01-30T03:44:15;55.07;;;23.03;;
22378;SDS011;11357;49.990;7.370;2023-01-30T03:46:41;49.70;;;22.83;;
22378;SDS011;11357;49.990;7.370;2023-01-30T03:49:07;49.57;;;24.20;;
22378;SDS011;11357;49.990;7.370;2023-01-30T03:51:32;49.43;;;21.90;;
22378;SDS011;11357;49.990;7.370;2023-01-30T03:53:58;47.77;;;21.33;;
22378;SDS011;11357;49.990;7.370;2023-01-30T03:56:24;53.13;;;24.13;;
22378;SDS011;11357;49.990;7.370;2023-01-30T03:58:49;56.07;;;25.60;;
22378;SDS011;11357;49.990;7.370;2023-01-30T04:01:15;47.70;;;20.03;;
22378;SDS011;11357;49.990;7.370;2023-01-30T04:03:41;42.43;;;18.83;;
22378;SDS011;11357;49.990;7.370;2023-01-30T04:06:07;49.47;;;22.20;;
22378;SDS011;11357;49.990;7.370;2023-01-30T04:08:32;49.17;;;22.57;;
22378;SDS011;11357;49.990;7.370;2023-01-30T04:10:58;40.93;;;18.00;;
22378;SDS011;11357;49.990;7.370;2023-01-30T04:13:24;44.70;;;21.53;;
22378;SDS011;11357;49.990;7.370;2023-01-30T04:15:49;40.63;;;18.67;;
22378;SDS011;11357;49.990;7.370;2023-01-30T04:18:15;34.77;;;17.50;;
22378;SDS011;11357;49.990;7.370;2023-01-30T04:20:41;37.97;;;19.30;;
22378;SDS011;11357;49.990;7.370;2023-01-30T04:23:06;45.13;;;21.30;;
22378;SDS011;11357;49.990;7.370;2023-01-30T04:25:32;41.33;;;19.03;;
22378;SDS011;11357;49.990;7.370;2023-01-30T04:27:58;33.40;;;17.27;;
22378;SDS011;11357;49.990;7.370;2023-01-30T04:30:23;34.30;;;17.87;;
22378;SDS011;11357;49.990;7.370;2023-01-30T04:32:49;31.40;;;15.37;;
22378;SDS011;11357;49.990;7.370;2023-01-30T04:35:14;29.60;;;14.57;;
22378;SDS011;11357;49.990;7.370;2023-01-30T04:37:40;30.00;;;16.17;;
22378;SDS011;11357;49.990;7.370;2023-01-30T04:40:06;32.13;;;15.03;;
22378;SDS011;11357;49.990;7.370;2023-01-30T04:42:32;30.07;;;14.23;;
22378;SDS011;11357;49.990;7.370;2023-01-30T04:44:58;28.90;;;14.30;;
22378;SDS011;11357;49.990;7.370;2023-01-30T04:47:23;34.37;;;16.10;;
22378;SDS011;11357;49.990;7.370;2023-01-30T04:49:49;31.33;;;15.13;;
22378;SDS011;11357;49.990;7.370;2023-01-30T04:52:14;28.83;;;14.37;;
22378;SDS011;11357;49.990;7.370;2023-01-30T04:54:40;31.30;;;15.73;;
22378;SDS011;11357;49.990;7.370;2023-01-30T04:57:06;28.17;;;15.30;;
22378;SDS011;11357;49.990;7.370;2023-01-30T04:59:31;26.50;;;13.23;;
22378;SDS011;11357;49.990;7.370;2023-01-30T05:01:57;31.47;;;15.83;;
22378;SDS011;11357;49.990;7.370;2023-01-30T05:04:22;30.00;;;13.73;;
22378;SDS011;11357;49.990;7.370;2023-01-30T05:06:48;25.83;;;14.43;;
22378;SDS011;11357;49.990;7.370;2023-01-30T05:09:14;29.17;;;14.27;;
22378;SDS011;11357;49.990;7.370;2023-01-30T05:11:39;27.90;;;14.33;;
22378;SDS011;11357;49.990;7.370;2023-01-30T05:14:05;31.97;;;15.03;;
22378;SDS011;11357;49.990;7.370;2023-01-30T05:16:31;29.20;;;13.93;;
22378;SDS011;11357;49.990;7.370;2023-01-30T05:18:56;30.93;;;14.93;;
22378;SDS011;11357;49.990;7.370;2023-01-30T05:21:23;26.43;;;12.97;;
22378;SDS011;11357;49.990;7.370;2023-01-30T05:23:51;24.00;;;12.33;;
22378;SDS011;11357;49.990;7.370;2023-01-30T05:26:17;27.40;;;13.10;;
22378;SDS011;11357;49.990;7.370;2023-01-30T05:28:43;28.67;;;14.03;;
22378;SDS011;11357;49.990;7.370;2023-01-30T05:31:14;24.83;;;11.90;;
22378;SDS011;11357;49.990;7.370;2023-01-30T05:33:40;17.37;;;9.97;;
22378;SDS011;11357;49.990;7.370;2023-01-30T05:36:05;22.83;;;12.13;;
22378;SDS011;11357;49.990;7.370;2023-01-30T05:38:32;21.70;;;12.20;;
22378;SDS011;11357;49.990;7.370;2023-01-30T05:41:01;21.47;;;10.87;;
22378;SDS011;11357;49.990;7.370;2023-01-30T05:43:31;24.30;;;12.20;;
22378;SDS011;11357;49.990;7.370;2023-01-30T05:45:58;22.70;;;10.97;;
22378;SDS011;11357;49.990;7.370;2023-01-30T05:48:25;22.83;;;12.73;;
22378;SDS011;11357;49.990;7.370;2023-01-30T05:50:53;15.73;;;8.70;;
22378;SDS011;11357;49.990;7.370;2023-01-30T05:53:20;19.90;;;10.83;;
22378;SDS011;11357;49.990;7.370;2023-01-30T05:55:53;20.73;;;11.03;;
22378;SDS011;11357;49.990;7.370;2023-01-30T05:58:23;22.73;;;12.00;;
22378;SDS011;11357;49.990;7.370;2023-01-30T06:00:49;24.53;;;12.53;;
22378;SDS011;11357;49.990;7.370;2023-01-30T06:03:15;21.70;;;11.80;;
22378;SDS011;11357;49.990;7.370;2023-01-30T06:05:41;25.10;;;12.93;;
22378;SDS011;11357;49.990;7.370;2023-01-30T06:08:07;21.97;;;11.93;;
22378;SDS011;11357;49.990;7.370;2023-01-30T06:10:33;25.10;;;10.80;;
22378;SDS011;11357;49.990;7.370;2023-01-30T06:12:59;23.97;;;12.13;;
22378;SDS011;11357;49.990;7.370;2023-01-30T06:15:25;15.37;;;7.80;;
22378;SDS011;11357;49.990;7.370;2023-01-30T06:17:50;22.20;;;11.13;;
22378;SDS011;11357;49.990;7.370;2023-01-30T06:20:16;22.87;;;11.60;;
22378;SDS011;11357;49.990;7.370;2023-01-30T06:22:41;16.90;;;9.77;;
22378;SDS011;11357;49.990;7.370;2023-01-30T06:25:07;18.20;;;10.67;;
22378;SDS011;11357;49.990;7.370;2023-01-30T06:27:33;17.73;;;11.50;;
22378;SDS011;11357;49.990;7.370;2023-01-30T06:29:59;19.07;;;10.97;;
22378;SDS011;11357;49.990;7.370;2023-01-30T06:32:25;24.10;;;11.60;;
22378;SDS011;11357;49.990;7.370;2023-01-30T06:34:50;25.87;;;14.43;;
22378;SDS011;11357;49.990;7.370;2023-01-30T06:37:16;22.90;;;12.53;;
22378;SDS011;11357;49.990;7.370;2023-01-30T06:39:41;23.30;;;11.20;;
22378;SDS011;11357;49.990;7.370;2023-01-30T06:42:07;21.77;;;11.70;;
22378;SDS011;11357;49.990;7.370;2023-01-30T06:44:33;21.73;;;12.03;;
22378;SDS011;11357;49.990;7.370;2023-01-30T06:46:58;27.03;;;10.90;;
22378;SDS011;11357;49.990;7.370;2023-01-30T06:49:24;22.03;;;10.73;;
22378;SDS011;11357;49.990;7.370;2023-01-30T06:51:49;23.37;;;10.87;;
22378;SDS011;11357;49.990;7.370;2023-01-30T06:54:15;19.23;;;9.97;;
22378;SDS011;11357;49.990;7.370;2023-01-30T06:56:41;18.00;;;9.87;;
22378;SDS011;11357;49.990;7.370;2023-01-30T06:59:06;20.87;;;12.33;;
22378;SDS011;11357;49.990;7.370;2023-01-30T07:01:32;19.33;;;9.67;;
22378;SDS011;11357;49.990;7.370;2023-01-30T07:03:58;20.13;;;10.00;;
22378;SDS011;11357;49.990;7.370;2023-01-30T07:06:25;14.50;;;7.73;;
22378;SDS011;11357;49.990;7.370;2023-01-30T07:08:51;14.17;;;7.67;;
22378;SDS011;11357;49.990;7.370;2023-01-30T07:11:17;12.90;;;7.03;;
22378;SDS011;11357;49.990;7.370;2023-01-30T07:13:43;17.43;;;8.47;;
22378;SDS011;11357;49.990;7.370;2023-01-30T07:16:08;21.80;;;9.73;;
22378;SDS011;11357;49.990;7.370;2023-01-30T07:18:34;17.83;;;8.97;;
22378;SDS011;11357;49.990;7.370;2023-01-30T07:21:00;16.20;;;8.77;;
22378;SDS011;11357;49.990;7.370;2023-01-30T07:23:25;14.73;;;7.63;;
22378;SDS011;11357;49.990;7.370;2023-01-30T07:25:51;19.43;;;9.40;;
22378;SDS011;11357;49.990;7.370;2023-01-30T07:28:17;16.80;;;8.50;;
22378;SDS011;11357;49.990;7.370;2023-01-30T07:30:42;19.33;;;10.27;;
22378;SDS011;11357;49.990;7.370;2023-01-30T07:33:08;15.87;;;7.70;;
22378;SDS011;11357;49.990;7.370;2023-01-30T07:35:34;21.10;;;10.10;;
22378;SDS011;11357;49.990;7.370;2023-01-30T07:38:01;18.20;;;9.77;;
22378;SDS011;11357;49.990;7.370;2023-01-30T07:40:27;18.53;;;9.00;;
22378;SDS011;11357;49.990;7.370;2023-01-30T07:43:00;14.07;;;7.37;;
22378;SDS011;11357;49.990;7.370;2023-01-30T07:45:28;15.83;;;10.33;;
22378;SDS011;11357;49.990;7.370;2023-01-30T07:47:59;14.97;;;7.47;;
22378;SDS011;11357;49.990;7.370;2023-01-30T07:50:25;19.13;;;8.67;;
22378;SDS011;11357;49.990;7.370;2023-01-30T07:52:51;14.77;;;8.60;;
22378;SDS011;11357;49.990;7.370;2023-01-30T07:55:16;11.87;;;6.93;;
22378;SDS011;11357;49.990;7.370;2023-01-30T07:57:42;15.87;;;8.53;;
22378;SDS011;11357;49.990;7.370;2023-01-30T08:00:08;13.97;;;8.23;;
22378;SDS011;11357;49.990;7.370;2023-01-30T08:02:35;18.77;;;8.37;;
22378;SDS011;11357;49.990;7.370;2023-01-30T08:05:01;9.33;;;5.83;;
22378;SDS011;11357;49.990;7.370;2023-01-30T08:07:26;10.37;;;6.07;;
22378;SDS011;11357;49.990;7.370;2023-01-30T08:09:52;14.87;;;7.97;;
22378;SDS011;11357;49.990;7.370;2023-01-30T08:12:18;9.23;;;5.80;;
22378;SDS011;11357;49.990;7.370;2023-01-30T08:14:43;9.57;;;5.87;;
22378;SDS011;11357;49.990;7.370;2023-01-30T08:17:09;13.50;;;7.90;;
22378;SDS011;11357;49.990;7.370;2023-01-30T08:19:34;15.50;;;7.17;;
22378;SDS011;11357;49.990;7.370;2023-01-30T08:22:00;13.83;;;7.47;;
22378;SDS011;11357;49.990;7.370;2023-01-30T08:24:26;14.57;;;10.27;;
22378;SDS011;11357;49.990;7.370;2023-01-30T08:26:52;10.93;;;6.80;;
22378;SDS011;11357;49.990;7.370;2023-01-30T08:29:17;9.73;;;6.07;;
22378;SDS011;11357;49.990;7.370;2023-01-30T08:31:43;13.10;;;7.40;;
22378;SDS011;11357;49.990;7.370;2023-01-30T08:34:09;9.17;;;5.77;;
22378;SDS011;11357;49.990;7.370;2023-01-30T08:36:34;8.77;;;5.60;;
22378;SDS011;11357;49.990;7.370;2023-01-30T08:39:00;10.93;;;6.30;;
22378;SDS011;11357;49.990;7.370;2023-01-30T08:41:25;10.80;;;6.67;;
22378;SDS011;11357;49.990;7.370;2023-01-30T08:43:52;10.30;;;6.10;;
22378;SDS011;11357;49.990;7.370;2023-01-30T08:46:18;10.40;;;6.30;;
22378;SDS011;11357;49.990;7.370;2023-01-30T08:48:45;10.83;;;6.00;;
22378;SDS011;11357;49.990;7.370;2023-01-30T08:51:12;8.83;;;5.40;;
22378;SDS011;11357;49.990;7.370;2023-01-30T08:53:38;7.07;;;4.60;;
22378;SDS011;11357;49.990;7.370;2023-01-30T08:56:04;11.70;;;5.30;;
22378;SDS011;11357;49.990;7.370;2023-01-30T08:58:30;12.33;;;6.67;;
22378;SDS011;11357;49.990;7.370;2023-01-30T09:00:56;11.50;;;6.43;;
22378;SDS011;11357;49.990;7.370;2023-01-30T09:03:22;13.10;;;6.97;;
22378;SDS011;11357;49.990;7.370;2023-01-30T09:05:52;10.87;;;5.77;;
22378;SDS011;11357;49.990;7.370;2023-01-30T09:08:20;9.53;;;5.83;;
22378;SDS011;11357;49.990;7.370;2023-01-30T09:10:46;7.27;;;5.23;;
22378;SDS011;11357;49.990;7.370;2023-01-30T09:13:11;9.77;;;5.97;;
22378;SDS011;11357;49.990;7.370;2023-01-30T09:15:39;7.97;;;4.80;;
22378;SDS011;11357;49.990;7.370;2023-01-30T09:18:06;8.97;;;5.50;;
22378;SDS011;11357;49.990;7.370;2023-01-30T09:20:32;11.07;;;5.17;;
22378;SDS011;11357;49.990;7.370;2023-01-30T09:23:00;8.37;;;5.37;;
22378;SDS011;11357;49.990;7.370;2023-01-30T09:25:25;8.60;;;5.30;;
22378;SDS011;11357;49.990;7.370;2023-01-30T09:27:51;8.73;;;5.40;;
22378;SDS011;11357;49.990;7.370;2023-01-30T09:30:18;7.10;;;4.87;;
22378;SDS011;11357;49.990;7.370;2023-01-30T09:32:44;7.03;;;4.87;;
22378;SDS011;11357;49.990;7.370;2023-01-30T09:35:10;8.87;;;5.03;;
22378;SDS011;11357;49.990;7.370;2023-01-30T09:37:35;8.20;;;4.77;;
22378;SDS011;11357;49.990;7.370;2023-01-30T09:40:01;8.20;;;5.50;;
22378;SDS011;11357;49.990;7.370;2023-01-30T09:42:37;8.27;;;5.37;;
22378;SDS011;11357;49.990;7.370;2023-01-30T09:55:27;11.23;;;5.37;;
22378;SDS011;11357;49.990;7.370;2023-01-30T09:57:55;9.67;;;5.87;;
22378;SDS011;11357;49.990;7.370;2023-01-30T10:06:15;9.77;;;5.90;;
22378;SDS011;11357;49.990;7.370;2023-01-30T10:23:03;8.10;;;5.50;;
22378;SDS011;11357;49.990;7.370;2023-01-30T10:30:45;6.60;;;4.13;;
22378;SDS011;11357;49.990;7.370;2023-01-30T10:36:17;6.67;;;4.40;;
22378;SDS011;11357;49.990;7.370;2023-01-30T10:42:14;8.10;;;4.30;;
22378;SDS011;11357;49.990;7.370;2023-01-30T10:44:46;8.10;;;4.70;;
22378;SDS011;11357;49.990;7.370;2023-01-30T10:49:57;7.90;;;4.60;;
22378;SDS011;11357;49.990;7.370;2023-01-30T11:01:00;9.10;;;5.10;;
22378;SDS011;11357;49.990;7.370;2023-01-30T11:03:39;4.57;;;3.40;;
22378;SDS011;11357;49.990;7.370;2023-01-30T11:06:20;7.63;;;4.77;;
22378;SDS011;11357;49.990;7.370;2023-01-30T11:08:48;6.87;;;4.40;;
22378;SDS011;11357;49.990;7.370;2023-01-30T11:11:34;8.17;;;4.67;;
22378;SDS011;11357;49.990;7.370;2023-01-30T11:14:11;8.73;;;4.33;;
22378;SDS011;11357;49.990;7.370;2023-01-30T11:16:45;7.80;;;4.10;;
22378;SDS011;11357;49.990;7.370;2023-01-30T11:19:12;7.67;;;4.23;;
22378;SDS011;11357;49.990;7.370;2023-01-30T11:21:40;4.73;;;3.27;;
22378;SDS011;11357;49.990;7.370;2023-01-30T11:24:12;7.13;;;4.63;;
22378;SDS011;11357;49.990;7.370;2023-01-30T11:26:42;8.33;;;4.40;;
22378;SDS011;11357;49.990;7.370;2023-01-30T11:31:50;7.83;;;4.60;;
22378;SDS011;11357;49.990;7.370;2023-01-30T11:34:17;5.93;;;4.10;;
22378;SDS011;11357;49.990;7.370;2023-01-30T11:36:44;6.57;;;4.33;;
22378;SDS011;11357;49.990;7.370;2023-01-30T11:41:47;4.70;;;3.50;;
22378;SDS011;11357;49.990;7.370;2023-01-30T11:44:34;5.63;;;3.73;;
22378;SDS011;11357;49.990;7.370;2023-01-30T11:47:03;5.27;;;3.60;;
22378;SDS011;11357;49.990;7.370;2023-01-30T11:49:37;5.20;;;3.60;;
22378;SDS011;11357;49.990;7.370;2023-01-30T11:52:06;7.80;;;4.03;;
22378;SDS011;11357;49.990;7.370;2023-01-30T11:54:33;5.67;;;4.10;;
22378;SDS011;11357;49.990;7.370;2023-01-30T11:57:03;4.97;;;3.53;;
22378;SDS011;11357;49.990;7.370;2023-01-30T12:05:04;6.80;;;4.50;;
22378;SDS011;11357;49.990;7.370;2023-01-30T12:07:33;5.93;;;4.00;;
22378;SDS011;11357;49.990;7.370;2023-01-30T12:10:00;4.93;;;3.87;;
22378;SDS011;11357;49.990;7.370;2023-01-30T12:13:03;7.47;;;4.40;;
22378;SDS011;11357;49.990;7.370;2023-01-30T12:15:38;8.53;;;4.20;;
22378;SDS011;11357;49.990;7.370;2023-01-30T12:26:44;7.53;;;3.70;;
22378;SDS011;11357;49.990;7.370;2023-01-30T12:32:12;6.00;;;3.27;;
22378;SDS011;11357;49.990;7.370;2023-01-30T12:34:41;7.63;;;4.30;;
22378;SDS011;11357;49.990;7.370;2023-01-30T12:37:34;4.57;;;3.60;;
22378;SDS011;11357;49.990;7.370;2023-01-30T12:40:19;8.30;;;3.90;;
22378;SDS011;11357;49.990;7.370;2023-01-30T12:43:15;5.80;;;3.67;;
22378;SDS011;11357;49.990;7.370;2023-01-30T12:52:12;12.37;;;3.53;;
22378;SDS011;11357;49.990;7.370;2023-01-30T12:54:56;5.73;;;3.13;;
22378;SDS011;11357;49.990;7.370;2023-01-30T13:13:52;14.47;;;3.37;;
22378;SDS011;11357;49.990;7.370;2023-01-30T13:19:33;8.93;;;3.73;;
22378;SDS011;11357;49.990;7.370;2023-01-30T13:27:35;6.10;;;3.10;;
22378;SDS011;11357;49.990;7.370;2023-01-30T13:30:05;8.10;;;3.00;;
22378;SDS011;11357;49.990;7.370;2023-01-30T13:35:00;7.90;;;3.23;;
22378;SDS011;11357;49.990;7.370;2023-01-30T13:37:27;7.60;;;3.07;;
22378;SDS011;11357;49.990;7.370;2023-01-30T13:39:56;9.20;;;3.30;;
22378;SDS011;11357;49.990;7.370;2023-01-30T13:45:14;8.20;;;3.03;;
22378;SDS011;11357;49.990;7.370;2023-01-30T13:56:18;11.37;;;3.60;;
22378;SDS011;11357;49.990;7.370;2023-01-30T14:12:27;4.93;;;3.70;;
22378;SDS011;11357;49.990;7.370;2023-01-30T14:15:09;7.10;;;3.33;;
22378;SDS011;11357;49.990;7.370;2023-01-30T14:20:21;10.97;;;3.60;;
22378;SDS011;11357;49.990;7.370;2023-01-30T14:22:53;9.30;;;3.23;;
22378;SDS011;11357;49.990;7.370;2023-01-30T14:38:25;5.33;;;3.33;;
22378;SDS011;11357;49.990;7.370;2023-01-30T14:48:44;10.40;;;3.40;;
22378;SDS011;11357;49.990;7.370;2023-01-30T14:51:36;8.50;;;3.77;;
22378;SDS011;11357;49.990;7.370;2023-01-30T14:54:17;9.03;;;4.10;;
22378;SDS011;11357;49.990;7.370;2023-01-30T15:04:32;8.10;;;3.47;;
22378;SDS011;11357;49.990;7.370;2023-01-30T15:07:28;6.63;;;2.80;;
22378;SDS011;11357;49.990;7.370;2023-01-30T15:10:18;43.27;;;15.80;;
22378;SDS011;11357;49.990;7.370;2023-01-30T15:16:01;13.63;;;3.73;;
22378;SDS011;11357;49.990;7.370;2023-01-30T15:19:15;12.63;;;3.43;;
22378;SDS011;11357;49.990;7.370;2023-01-30T15:21:50;9.10;;;3.50;;
22378;SDS011;11357;49.990;7.370;2023-01-30T15:31:28;10.07;;;3.63;;
22378;SDS011;11357;49.990;7.370;2023-01-30T15:33:25;10.37;;;3.60;;
22378;SDS011;11357;49.990;7.370;2023-01-30T15:35:52;13.10;;;3.50;;
22378;SDS011;11357;49.990;7.370;2023-01-30T15:38:31;23.77;;;3.80;;
22378;SDS011;11357;49.990;7.370;2023-01-30T15:41:01;22.87;;;4.60;;
22378;SDS011;11357;49.990;7.370;2023-01-30T15:46:12;12.97;;;3.63;;
22378;SDS011;11357;49.990;7.370;2023-01-30T15:49:07;15.43;;;4.43;;
22378;SDS011;11357;49.990;7.370;2023-01-30T15:51:48;15.13;;;3.70;;
22378;SDS011;11357;49.990;7.370;2023-01-30T15:54:16;16.73;;;3.27;;
22378;SDS011;11357;49.990;7.370;2023-01-30T15:56:45;10.47;;;3.17;;
22378;SDS011;11357;49.990;7.370;2023-01-30T15:59:32;10.87;;;3.30;;
22378;SDS011;11357;49.990;7.370;2023-01-30T16:04:30;19.37;;;3.40;;
22378;SDS011;11357;49.990;7.370;2023-01-30T16:06:56;13.33;;;2.77;;
22378;SDS011;11357;49.990;7.370;2023-01-30T16:09:23;9.77;;;2.97;;
22378;SDS011;11357;49.990;7.370;2023-01-30T16:11:49;12.63;;;3.40;;
22378;SDS011;11357;49.990;7.370;2023-01-30T16:14:16;18.67;;;3.37;;
22378;SDS011;11357;49.990;7.370;2023-01-30T16:16:45;15.90;;;3.80;;
22378;SDS011;11357;49.990;7.370;2023-01-30T16:19:31;18.23;;;3.40;;
22378;SDS011;11357;49.990;7.370;2023-01-30T16:22:02;18.13;;;3.40;;
22378;SDS011;11357;49.990;7.370;2023-01-30T16:24:34;13.07;;;3.27;;
22378;SDS011;11357;49.990;7.370;2023-01-30T16:27:02;9.37;;;3.00;;
22378;SDS011;11357;49.990;7.370;2023-01-30T16:29:31;19.80;;;3.67;;
22378;SDS011;11357;49.990;7.370;2023-01-30T16:32:00;21.20;;;3.97;;
22378;SDS011;11357;49.990;7.370;2023-01-30T16:34:38;17.47;;;4.17;;
22378;SDS011;11357;49.990;7.370;2023-01-30T16:37:06;27.50;;;11.07;;
22378;SDS011;11357;49.990;7.370;2023-01-30T16:48:39;23.37;;;7.27;;
22378;SDS011;11357;49.990;7.370;2023-01-30T16:51:15;17.27;;;4.80;;
22378;SDS011;11357;49.990;7.370;2023-01-30T16:53:51;16.30;;;4.97;;
22378;SDS011;11357;49.990;7.370;2023-01-30T16:56:22;18.20;;;4.83;;
22378;SDS011;11357;49.990;7.370;2023-01-30T16:58:51;15.90;;;3.27;;
22378;SDS011;11357;49.990;7.370;2023-01-30T17:01:19;17.63;;;3.57;;
22378;SDS011;11357;49.990;7.370;2023-01-30T17:03:48;18.93;;;3.37;;
22378;SDS011;11357;49.990;7.370;2023-01-30T17:06:22;13.27;;;3.90;;
22378;SDS011;11357;49.990;7.370;2023-01-30T17:08:59;12.97;;;3.23;;
22378;SDS011;11357;49.990;7.370;2023-01-30T17:11:36;13.63;;;3.13;;
22378;SDS011;11357;49.990;7.370;2023-01-30T17:16:46;21.27;;;3.80;;
22378;SDS011;11357;49.990;7.370;2023-01-30T17:19:24;10.97;;;3.27;;
22378;SDS011;11357;49.990;7.370;2023-01-30T17:21:50;12.43;;;3.53;;
22378;SDS011;11357;49.990;7.370;2023-01-30T17:24:17;19.33;;;3.53;;
22378;SDS011;11357;49.990;7.370;2023-01-30T17:26:44;18.03;;;4.23;;
22378;SDS011;11357;49.990;7.370;2023-01-30T17:29:13;15.17;;;3.10;;
22378;SDS011;11357;49.990;7.370;2023-01-30T17:31:48;18.57;;;3.60;;
22378;SDS011;11357;49.990;7.370;2023-01-30T17:34:15;17.47;;;3.50;;
22378;SDS011;11357;49.990;7.370;2023-01-30T17:36:42;19.30;;;4.00;;
22378;SDS011;11357;49.990;7.370;2023-01-30T17:39:11;15.23;;;5.57;;
22378;SDS011;11357;49.990;7.370;2023-01-30T17:41:38;20.73;;;3.93;;
22378;SDS011;11357;49.990;7.370;2023-01-30T17:44:05;17.63;;;3.70;;
22378;SDS011;11357;49.990;7.370;2023-01-30T17:48:58;14.83;;;4.30;;
22378;SDS011;11357;49.990;7.370;2023-01-30T17:51:23;14.70;;;3.27;;
22378;SDS011;11357;49.990;7.370;2023-01-30T17:53:49;15.23;;;3.37;;
22378;SDS011;11357;49.990;7.370;2023-01-30T17:56:18;16.17;;;4.07;;
22378;SDS011;11357;49.990;7.370;2023-01-30T17:58:47;22.93;;;3.90;;
22378;SDS011;11357;49.990;7.370;2023-01-30T18:01:16;19.50;;;3.90;;
22378;SDS011;11357;49.990;7.370;2023-01-30T18:03:43;22.47;;;10.43;;
22378;SDS011;11357;49.990;7.370;2023-01-30T18:06:13;20.53;;;3.70;;
22378;SDS011;11357;49.990;7.370;2023-01-30T18:08:39;18.13;;;3.60;;
22378;SDS011;11357;49.990;7.370;2023-01-30T18:11:05;17.03;;;4.27;;
22378;SDS011;11357;49.990;7.370;2023-01-30T18:13:35;17.80;;;3.77;;
22378;SDS011;11357;49.990;7.370;2023-01-30T18:16:09;16.47;;;3.27;;
22378;SDS011;11357;49.990;7.370;2023-01-30T18:18:43;19.53;;;3.60;;
22378;SDS011;11357;49.990;7.370;2023-01-30T18:21:09;15.80;;;3.47;;
22378;SDS011;11357;49.990;7.370;2023-01-30T18:23:35;10.30;;;3.03;;
22378;SDS011;11357;49.990;7.370;2023-01-30T18:26:01;11.50;;;3.07;;
22378;SDS011;11357;49.990;7.370;2023-01-30T18:28:27;16.33;;;3.17;;
22378;SDS011;11357;49.990;7.370;2023-01-30T18:30:53;16.17;;;3.43;;
22378;SDS011;11357;49.990;7.370;2023-01-30T18:33:18;16.80;;;4.13;;
22378;SDS011;11357;49.990;7.370;2023-01-30T18:35:44;24.80;;;3.37;;